Time;durP1;ratioP1;P1;durP2;ratioP2;P2;SDS_P1;SDS_P2;PMS_P1;PMS_P2;Temp;Humidity;BMP_temperature;BMP_pressure;BME280_temperature;BME280_humidity;BME280_pressure;Samples;Min_cycle;Max_cycle;Signal;HPM_P1;HPM_P2
2023/10/28 00:02:20;;;;;;;23.83;8.27;;;;;;;;;;5083441;28;20415;-66
2023/10/28 00:04:45;;;;;;;30.63;9.57;;;;;;;;;;5079592;28;20016;-65
2023/10/28 00:07:10;;;;;;;34.67;9.00;;;;;;;;;;5083294;28;20032;-66
2023/10/28 00:09:35;;;;;;;37.30;9.87;;;;;;;;;;5084454;28;20028;-65
2023/10/28 00:12:01;;;;;;;39.67;9.87;;;;;;;;;;5084035;28;20092;-66
2023/10/28 00:14:27;;;;;;;34.07;8.77;;;;;;;;;;5081518;28;20247;-66
2023/10/28 00:16:52;;;;;;;29.63;9.13;;;;;;;;;;5082179;28;20529;-66
2023/10/28 00:19:19;;;;;;;27.47;8.37;;;;;;;;;;5083128;28;20030;-66
2023/10/28 00:21:44;;;;;;;31.93;8.30;;;;;;;;;;5083963;28;20028;-66
2023/10/28 00:24:10;;;;;;;30.63;9.23;;;;;;;;;;5079180;28;20035;-66
2023/10/28 00:26:35;;;;;;;34.23;9.30;;;;;;;;;;5082338;28;20032;-66
2023/10/28 00:29:00;;;;;;;32.47;8.83;;;;;;;;;;5083589;28;20107;-66
2023/10/28 00:31:28;;;;;;;27.13;8.57;;;;;;;;;;5085495;28;20020;-67
2023/10/28 00:33:53;;;;;;;34.63;8.87;;;;;;;;;;5079671;28;20039;-66
2023/10/28 00:36:18;;;;;;;34.30;9.47;;;;;;;;;;5081859;28;20476;-66
2023/10/28 00:38:44;;;;;;;31.20;9.80;;;;;;;;;;5081605;28;20416;-66
2023/10/28 00:41:09;;;;;;;29.30;8.57;;;;;;;;;;5084133;28;20020;-66
2023/10/28 00:43:34;;;;;;;31.40;8.70;;;;;;;;;;5081502;28;20044;-66
2023/10/28 00:46:00;;;;;;;28.77;8.67;;;;;;;;;;5081618;28;20024;-66
2023/10/28 00:48:28;;;;;;;28.20;8.50;;;;;;;;;;5081612;28;20475;-65
2023/10/28 00:50:54;;;;;;;33.07;8.80;;;;;;;;;;5085284;28;20016;-65
2023/10/28 00:53:23;;;;;;;28.83;9.37;;;;;;;;;;5083338;28;20472;-66
2023/10/28 00:55:51;;;;;;;28.23;8.40;;;;;;;;;;5082043;28;21902;-65
2023/10/28 00:58:17;;;;;;;27.33;8.73;;;;;;;;;;5081738;28;20024;-63
2023/10/28 01:00:43;;;;;;;31.30;9.03;;;;;;;;;;5079529;28;20150;-64
2023/10/28 01:03:09;;;;;;;25.20;8.10;;;;;;;;;;5083795;28;20076;-62
2023/10/28 01:05:35;;;;;;;32.83;8.47;;;;;;;;;;5083446;28;20059;-63
2023/10/28 01:08:00;;;;;;;33.67;8.83;;;;;;;;;;5078788;28;20070;-64
2023/10/28 01:10:26;;;;;;;29.30;8.13;;;;;;;;;;5078891;28;20022;-64
2023/10/28 01:12:51;;;;;;;30.40;9.10;;;;;;;;;;5075304;28;20388;-62
2023/10/28 01:15:16;;;;;;;35.20;9.40;;;;;;;;;;5079535;28;20024;-64
2023/10/28 01:17:42;;;;;;;30.57;8.47;;;;;;;;;;5075927;28;20013;-62
2023/10/28 01:20:10;;;;;;;33.93;9.00;;;;;;;;;;5077605;28;20708;-62
2023/10/28 01:22:35;;;;;;;31.73;9.13;;;;;;;;;;5079406;28;20043;-62
2023/10/28 01:25:00;;;;;;;39.60;8.90;;;;;;;;;;5074720;28;20432;-65
2023/10/28 01:27:26;;;;;;;33.23;9.13;;;;;;;;;;5079861;28;20028;-62
2023/10/28 01:29:51;;;;;;;33.07;8.93;;;;;;;;;;5080495;28;20123;-64
2023/10/28 01:32:17;;;;;;;40.00;9.80;;;;;;;;;;5078580;28;20024;-63
2023/10/28 01:34:47;;;;;;;35.63;9.50;;;;;;;;;;5081888;28;20143;-64
2023/10/28 01:37:12;;;;;;;37.37;10.17;;;;;;;;;;5078552;28;20496;-63
2023/10/28 01:39:38;;;;;;;36.97;10.47;;;;;;;;;;5080725;28;20028;-65
2023/10/28 01:42:04;;;;;;;37.40;10.03;;;;;;;;;;5078797;28;20192;-64
2023/10/28 01:44:34;;;;;;;37.27;10.60;;;;;;;;;;5063471;28;20124;-65
2023/10/28 01:46:59;;;;;;;36.23;10.60;;;;;;;;;;5079992;28;20024;-63
2023/10/28 01:49:25;;;;;;;40.03;10.63;;;;;;;;;;5076998;28;20038;-63
2023/10/28 01:51:50;;;;;;;33.73;9.20;;;;;;;;;;5077064;28;20109;-63
2023/10/28 01:54:15;;;;;;;36.00;9.97;;;;;;;;;;5082145;28;20040;-63
2023/10/28 01:56:43;;;;;;;40.10;11.13;;;;;;;;;;5079104;28;20015;-65
2023/10/28 01:59:08;;;;;;;43.93;11.37;;;;;;;;;;5078315;28;20028;-64
2023/10/28 02:01:35;;;;;;;41.10;10.63;;;;;;;;;;5078943;28;20082;-65
2023/10/28 02:04:06;;;;;;;45.17;11.93;;;;;;;;;;5083681;28;20500;-65
2023/10/28 02:06:31;;;;;;;41.37;10.77;;;;;;;;;;5078954;28;20056;-63
2023/10/28 02:08:56;;;;;;;43.67;10.90;;;;;;;;;;5081723;28;20495;-65
2023/10/28 02:11:23;;;;;;;48.87;11.83;;;;;;;;;;5080307;28;20020;-63
2023/10/28 02:13:49;;;;;;;50.07;11.10;;;;;;;;;;5082177;28;20298;-63
2023/10/28 02:16:14;;;;;;;45.90;11.30;;;;;;;;;;5082898;28;20520;-63
2023/10/28 02:18:40;;;;;;;37.40;10.23;;;;;;;;;;5080230;28;20265;-64
2023/10/28 02:21:05;;;;;;;51.37;11.93;;;;;;;;;;5083749;28;20028;-65
2023/10/28 02:23:31;;;;;;;50.00;11.47;;;;;;;;;;5079703;28;20036;-64
2023/10/28 02:25:56;;;;;;;55.67;12.63;;;;;;;;;;5080824;28;20485;-63
2023/10/28 02:28:21;;;;;;;54.80;11.03;;;;;;;;;;5086273;28;20020;-65
2023/10/28 02:30:46;;;;;;;59.10;12.60;;;;;;;;;;5081272;28;20048;-65
2023/10/28 02:33:12;;;;;;;56.93;11.20;;;;;;;;;;5082562;28;20512;-63
2023/10/28 02:35:37;;;;;;;54.27;11.87;;;;;;;;;;5083691;28;20058;-63
2023/10/28 02:38:02;;;;;;;55.73;12.30;;;;;;;;;;5085793;28;20448;-65
2023/10/28 02:40:28;;;;;;;62.90;12.63;;;;;;;;;;5085243;28;20043;-65
2023/10/28 02:42:53;;;;;;;51.63;11.37;;;;;;;;;;5084627;28;20372;-65
2023/10/28 02:45:18;;;;;;;61.10;13.33;;;;;;;;;;5082719;28;20076;-65
2023/10/28 02:47:44;;;;;;;56.70;12.87;;;;;;;;;;5085026;28;20020;-64
2023/10/28 02:50:09;;;;;;;59.17;13.37;;;;;;;;;;5085648;28;20016;-63
2023/10/28 02:52:34;;;;;;;59.73;13.57;;;;;;;;;;5081107;28;20051;-65
2023/10/28 02:55:00;;;;;;;62.43;12.87;;;;;;;;;;5084438;28;20020;-64
2023/10/28 02:57:25;;;;;;;64.50;12.80;;;;;;;;;;5085805;28;20016;-63
2023/10/28 02:59:51;;;;;;;65.00;14.10;;;;;;;;;;5084109;28;20099;-65
2023/10/28 03:02:16;;;;;;;62.87;13.50;;;;;;;;;;5083963;28;20048;-63
2023/10/28 03:04:41;;;;;;;60.63;14.00;;;;;;;;;;5082158;28;20537;-64
2023/10/28 03:07:07;;;;;;;69.23;14.20;;;;;;;;;;5086603;28;20026;-64
2023/10/28 03:09:33;;;;;;;73.03;15.30;;;;;;;;;;5086977;28;20028;-64
2023/10/28 03:11:58;;;;;;;65.57;15.77;;;;;;;;;;5085374;28;20020;-65
2023/10/28 03:14:23;;;;;;;65.50;14.23;;;;;;;;;;5084582;28;20020;-64
2023/10/28 03:16:48;;;;;;;63.33;14.13;;;;;;;;;;5081487;28;20056;-64
2023/10/28 03:19:14;;;;;;;66.27;14.10;;;;;;;;;;5085751;28;20156;-63
2023/10/28 03:21:39;;;;;;;70.93;14.67;;;;;;;;;;5081264;28;20029;-63
2023/10/28 03:24:05;;;;;;;70.73;15.43;;;;;;;;;;5083866;28;20067;-64
2023/10/28 03:26:32;;;;;;;79.40;15.27;;;;;;;;;;5085512;28;20107;-63
2023/10/28 03:28:57;;;;;;;73.30;14.77;;;;;;;;;;5084130;28;20141;-63
2023/10/28 03:31:23;;;;;;;73.90;14.77;;;;;;;;;;5082368;28;20042;-63
2023/10/28 03:33:48;;;;;;;73.93;14.73;;;;;;;;;;5080036;28;20069;-64
2023/10/28 03:36:13;;;;;;;64.10;15.00;;;;;;;;;;5085098;28;20110;-64
2023/10/28 03:38:39;;;;;;;69.70;15.90;;;;;;;;;;5082488;28;20073;-64
2023/10/28 03:41:11;;;;;;;67.83;15.67;;;;;;;;;;5081193;28;20055;-64
2023/10/28 03:43:36;;;;;;;75.03;16.60;;;;;;;;;;5086008;28;20036;-65
2023/10/28 03:46:03;;;;;;;86.10;17.10;;;;;;;;;;5079602;28;20042;-64
2023/10/28 03:48:28;;;;;;;79.10;17.30;;;;;;;;;;5081686;28;20479;-64
2023/10/28 03:51:03;;;;;;;81.67;16.57;;;;;;;;;;5082697;28;20111;-64
2023/10/28 03:53:28;;;;;;;67.80;14.83;;;;;;;;;;5081355;28;20149;-64
2023/10/28 03:55:53;;;;;;;74.33;17.67;;;;;;;;;;5083406;28;20050;-64
2023/10/28 03:58:19;;;;;;;72.67;15.40;;;;;;;;;;5081008;28;20074;-65
2023/10/28 04:00:45;;;;;;;75.10;15.67;;;;;;;;;;5082264;28;20043;-65
2023/10/28 04:03:10;;;;;;;72.80;15.93;;;;;;;;;;5083748;28;20492;-63
2023/10/28 04:05:35;;;;;;;66.57;16.13;;;;;;;;;;5077565;28;20040;-64
2023/10/28 04:08:00;;;;;;;76.97;16.17;;;;;;;;;;5080975;28;20306;-63
2023/10/28 04:10:26;;;;;;;66.63;15.47;;;;;;;;;;5079325;28;20113;-65
2023/10/28 04:12:52;;;;;;;77.40;17.50;;;;;;;;;;5083229;28;20435;-65
2023/10/28 04:15:18;;;;;;;65.87;15.53;;;;;;;;;;5079411;28;20030;-64
2023/10/28 04:17:44;;;;;;;68.00;16.03;;;;;;;;;;5081870;28;20024;-65
2023/10/28 04:20:10;;;;;;;67.33;15.57;;;;;;;;;;5084040;28;20067;-64
2023/10/28 04:22:35;;;;;;;67.53;16.47;;;;;;;;;;5085371;28;20399;-64
2023/10/28 04:25:00;;;;;;;65.60;16.30;;;;;;;;;;5083478;28;20103;-63
2023/10/28 04:27:26;;;;;;;70.27;16.43;;;;;;;;;;5084822;28;20035;-64
2023/10/28 04:29:51;;;;;;;67.50;16.77;;;;;;;;;;5085083;28;20019;-65
2023/10/28 04:32:20;;;;;;;65.57;16.50;;;;;;;;;;5085074;28;20146;-64
2023/10/28 04:34:45;;;;;;;64.00;16.77;;;;;;;;;;5084795;28;20144;-63
2023/10/28 04:37:10;;;;;;;72.07;17.27;;;;;;;;;;5082340;28;20114;-64
2023/10/28 04:39:35;;;;;;;70.80;17.67;;;;;;;;;;5082256;28;20387;-64
2023/10/28 04:42:01;;;;;;;69.13;17.03;;;;;;;;;;5081094;28;20016;-64
2023/10/28 04:44:26;;;;;;;70.30;16.87;;;;;;;;;;5083232;28;20032;-63
2023/10/28 04:46:51;;;;;;;67.03;17.60;;;;;;;;;;5077600;28;20032;-64
2023/10/28 04:49:16;;;;;;;70.67;18.07;;;;;;;;;;5062825;28;20051;-63
2023/10/28 04:51:42;;;;;;;73.40;18.10;;;;;;;;;;5078943;28;20039;-63
2023/10/28 04:54:07;;;;;;;73.07;17.57;;;;;;;;;;5078274;28;20368;-63
2023/10/28 04:56:32;;;;;;;74.07;18.70;;;;;;;;;;5078980;28;20471;-63
2023/10/28 04:58:57;;;;;;;67.03;18.50;;;;;;;;;;5081031;28;20024;-64
2023/10/28 05:01:22;;;;;;;57.37;16.33;;;;;;;;;;5079874;28;20031;-62
2023/10/28 05:03:49;;;;;;;66.87;18.33;;;;;;;;;;5079550;28;20107;-63
2023/10/28 05:06:15;;;;;;;66.43;18.13;;;;;;;;;;5084597;28;20058;-63
2023/10/28 05:08:40;;;;;;;66.03;18.90;;;;;;;;;;5082864;28;20444;-63
2023/10/28 05:11:05;;;;;;;66.70;18.63;;;;;;;;;;5083722;28;20031;-64
2023/10/28 05:13:30;;;;;;;63.40;17.47;;;;;;;;;;5082587;28;20273;-62
2023/10/28 05:15:56;;;;;;;68.93;18.13;;;;;;;;;;5079555;28;20488;-64
2023/10/28 05:18:21;;;;;;;71.90;19.00;;;;;;;;;;5078947;28;20123;-64
2023/10/28 05:20:46;;;;;;;77.43;20.10;;;;;;;;;;5081997;28;20287;-64
2023/10/28 05:23:13;;;;;;;69.17;19.20;;;;;;;;;;5081988;28;20032;-62
2023/10/28 05:25:38;;;;;;;69.43;19.67;;;;;;;;;;5082417;28;20051;-63
2023/10/28 05:28:03;;;;;;;86.57;19.17;;;;;;;;;;5077731;28;20071;-63
2023/10/28 05:30:28;;;;;;;69.83;19.20;;;;;;;;;;5077526;28;20032;-64
2023/10/28 05:32:54;;;;;;;69.63;19.70;;;;;;;;;;5077237;28;20055;-64
2023/10/28 05:35:19;;;;;;;64.83;17.77;;;;;;;;;;5078462;28;20028;-63
2023/10/28 05:37:44;;;;;;;64.43;19.63;;;;;;;;;;5079727;28;20122;-64
2023/10/28 05:40:10;;;;;;;70.13;19.77;;;;;;;;;;5079496;28;20020;-63
2023/10/28 05:42:36;;;;;;;59.17;18.03;;;;;;;;;;5082792;28;20016;-62
2023/10/28 05:45:02;;;;;;;60.33;19.40;;;;;;;;;;5081882;28;20536;-63
2023/10/28 05:47:27;;;;;;;70.87;19.67;;;;;;;;;;5077332;28;20347;-63
2023/10/28 05:49:52;;;;;;;69.27;20.23;;;;;;;;;;5081657;28;20338;-64
2023/10/28 05:52:20;;;;;;;75.00;20.73;;;;;;;;;;5080974;28;20028;-63
2023/10/28 05:54:45;;;;;;;72.37;19.97;;;;;;;;;;5079595;28;20195;-63
2023/10/28 05:57:10;;;;;;;65.30;18.83;;;;;;;;;;5082560;28;20377;-64
2023/10/28 05:59:36;;;;;;;73.30;20.13;;;;;;;;;;5081118;28;20477;-62
2023/10/28 06:02:03;;;;;;;70.57;20.43;;;;;;;;;;5080392;28;20499;-64
2023/10/28 06:04:31;;;;;;;59.97;19.23;;;;;;;;;;5083473;28;20520;-64
2023/10/28 06:06:56;;;;;;;69.40;20.20;;;;;;;;;;5081622;28;20032;-63
2023/10/28 06:09:23;;;;;;;72.80;20.20;;;;;;;;;;5083695;28;20425;-62
2023/10/28 06:11:50;;;;;;;58.57;19.23;;;;;;;;;;5086164;28;20333;-62
2023/10/28 06:14:15;;;;;;;66.60;17.93;;;;;;;;;;5079395;28;20095;-64
2023/10/28 06:16:40;;;;;;;69.80;20.27;;;;;;;;;;5084551;28;20425;-61
2023/10/28 06:19:05;;;;;;;66.17;20.07;;;;;;;;;;5083330;28;20021;-64
2023/10/28 06:21:31;;;;;;;67.73;20.33;;;;;;;;;;5067976;28;20521;-61
2023/10/28 06:23:56;;;;;;;64.50;20.27;;;;;;;;;;5082169;28;20040;-62
2023/10/28 06:26:21;;;;;;;57.43;18.73;;;;;;;;;;5086656;28;20036;-63
2023/10/28 06:28:47;;;;;;;70.63;20.50;;;;;;;;;;5083671;28;20036;-63
2023/10/28 06:31:14;;;;;;;60.77;19.23;;;;;;;;;;5084310;28;20051;-63
2023/10/28 06:33:39;;;;;;;57.50;18.20;;;;;;;;;;5085937;28;20030;-64
2023/10/28 06:36:04;;;;;;;63.53;20.10;;;;;;;;;;5085036;28;20031;-63
2023/10/28 06:38:30;;;;;;;57.53;19.87;;;;;;;;;;5081670;28;20392;-63
2023/10/28 06:40:57;;;;;;;65.43;19.43;;;;;;;;;;5085329;28;20412;-62
2023/10/28 06:43:23;;;;;;;55.57;17.53;;;;;;;;;;5084615;28;20028;-63
2023/10/28 06:45:48;;;;;;;61.90;20.80;;;;;;;;;;5081202;28;20036;-64
2023/10/28 06:48:15;;;;;;;64.07;19.13;;;;;;;;;;5079529;28;20035;-62
2023/10/28 06:50:40;;;;;;;70.00;19.67;;;;;;;;;;5082052;28;20115;-65
2023/10/28 06:53:05;;;;;;;65.53;19.00;;;;;;;;;;5085036;28;20539;-65
2023/10/28 06:55:31;;;;;;;64.17;19.90;;;;;;;;;;5083244;28;20388;-65
2023/10/28 06:57:56;;;;;;;64.90;18.83;;;;;;;;;;5085181;28;20027;-65
2023/10/28 07:00:27;;;;;;;62.33;19.03;;;;;;;;;;5081630;28;20464;-65
2023/10/28 07:02:52;;;;;;;67.73;19.10;;;;;;;;;;5082120;28;20040;-65
2023/10/28 07:05:18;;;;;;;62.37;19.13;;;;;;;;;;5081237;28;20032;-65
2023/10/28 07:07:44;;;;;;;60.40;19.43;;;;;;;;;;5078258;28;20020;-65
2023/10/28 07:10:14;;;;;;;69.77;19.47;;;;;;;;;;5080772;28;20124;-65
2023/10/28 07:12:39;;;;;;;56.77;19.03;;;;;;;;;;5082591;28;20070;-65
2023/10/28 07:15:05;;;;;;;63.53;18.80;;;;;;;;;;5081353;28;20051;-65
2023/10/28 07:17:30;;;;;;;64.70;19.33;;;;;;;;;;5081978;28;20040;-65
2023/10/28 07:19:55;;;;;;;59.40;19.20;;;;;;;;;;5081830;28;20434;-65
2023/10/28 07:22:22;;;;;;;68.33;19.70;;;;;;;;;;5084304;28;20537;-65
2023/10/28 07:24:47;;;;;;;59.77;19.83;;;;;;;;;;5078069;28;20162;-65
2023/10/28 07:27:13;;;;;;;61.07;20.57;;;;;;;;;;5082465;28;20115;-65
2023/10/28 07:29:38;;;;;;;66.90;21.60;;;;;;;;;;5076791;28;20060;-65
2023/10/28 07:32:04;;;;;;;57.60;19.03;;;;;;;;;;5079388;28;20023;-65
2023/10/28 07:34:29;;;;;;;61.60;19.37;;;;;;;;;;5081230;28;20020;-65
2023/10/28 07:36:55;;;;;;;52.50;19.10;;;;;;;;;;5082003;28;20039;-65
2023/10/28 07:39:20;;;;;;;55.00;18.17;;;;;;;;;;5080565;28;20035;-66
2023/10/28 07:41:45;;;;;;;50.27;17.53;;;;;;;;;;5083205;28;20313;-65
2023/10/28 07:44:10;;;;;;;43.37;15.63;;;;;;;;;;5078678;28;20036;-65
2023/10/28 07:46:36;;;;;;;45.50;15.80;;;;;;;;;;5079986;28;20296;-65
2023/10/28 07:49:01;;;;;;;48.43;16.30;;;;;;;;;;5082647;28;20038;-66
2023/10/28 07:51:27;;;;;;;48.13;15.30;;;;;;;;;;5083381;28;20028;-66
2023/10/28 07:53:52;;;;;;;46.70;14.77;;;;;;;;;;5084898;28;20488;-66
2023/10/28 07:56:17;;;;;;;44.53;14.23;;;;;;;;;;5085273;28;20064;-66
2023/10/28 07:58:46;;;;;;;39.20;14.70;;;;;;;;;;5085109;28;20047;-65
2023/10/28 08:01:13;;;;;;;51.40;15.30;;;;;;;;;;5078530;28;20036;-64
2023/10/28 08:03:38;;;;;;;38.27;13.43;;;;;;;;;;5063789;28;20521;-63
2023/10/28 08:06:07;;;;;;;34.07;12.83;;;;;;;;;;5065436;28;20021;-64
2023/10/28 08:08:32;;;;;;;32.37;11.83;;;;;;;;;;5064907;28;20473;-65
2023/10/28 08:11:00;;;;;;;36.17;12.70;;;;;;;;;;5062021;28;20035;-64
2023/10/28 08:13:25;;;;;;;26.00;10.17;;;;;;;;;;5063491;28;20032;-65
2023/10/28 08:15:52;;;;;;;30.70;11.13;;;;;;;;;;5060923;28;20024;-63
2023/10/28 08:18:18;;;;;;;26.60;10.83;;;;;;;;;;5063633;28;20460;-64
2023/10/28 08:20:44;;;;;;;32.97;10.33;;;;;;;;;;5062603;28;20024;-65
2023/10/28 08:23:09;;;;;;;26.00;11.07;;;;;;;;;;5065659;28;20392;-65
2023/10/28 08:25:35;;;;;;;31.33;10.27;;;;;;;;;;5064638;28;20024;-63
2023/10/28 08:28:00;;;;;;;25.97;10.07;;;;;;;;;;5064755;28;20423;-62
2023/10/28 08:30:26;;;;;;;21.30;10.27;;;;;;;;;;5065194;28;20594;-64
2023/10/28 08:32:52;;;;;;;21.93;9.43;;;;;;;;;;5062364;28;20483;-65
2023/10/28 08:35:19;;;;;;;28.03;10.73;;;;;;;;;;5061459;28;20017;-64
2023/10/28 08:37:44;;;;;;;25.77;9.40;;;;;;;;;;5062784;28;20031;-64
2023/10/28 08:40:10;;;;;;;27.07;9.80;;;;;;;;;;5063021;28;20021;-64
2023/10/28 08:42:36;;;;;;;26.93;9.73;;;;;;;;;;5064248;28;20490;-64
2023/10/28 08:45:03;;;;;;;20.83;9.43;;;;;;;;;;5062956;28;20013;-62
2023/10/28 08:47:31;;;;;;;28.33;9.60;;;;;;;;;;5063514;28;20266;-64
2023/10/28 08:49:58;;;;;;;28.93;9.73;;;;;;;;;;5062419;28;20056;-65
2023/10/28 08:52:23;;;;;;;23.93;9.57;;;;;;;;;;5061597;28;20021;-62
2023/10/28 08:54:49;;;;;;;27.33;10.67;;;;;;;;;;5056403;28;20038;-63
2023/10/28 08:57:15;;;;;;;19.13;9.00;;;;;;;;;;5060232;28;20166;-64
2023/10/28 08:59:40;;;;;;;22.23;9.80;;;;;;;;;;5064483;28;20024;-64
2023/10/28 09:02:08;;;;;;;20.73;8.70;;;;;;;;;;5063485;28;20101;-64
2023/10/28 09:04:34;;;;;;;19.40;7.67;;;;;;;;;;5056833;28;20029;-63
2023/10/28 09:07:01;;;;;;;19.47;8.80;;;;;;;;;;5061112;28;20047;-64
2023/10/28 09:09:27;;;;;;;16.23;8.13;;;;;;;;;;5060679;28;20379;-67
2023/10/28 09:11:55;;;;;;;21.03;8.40;;;;;;;;;;5061820;28;20687;-67
2023/10/28 09:14:21;;;;;;;17.63;8.20;;;;;;;;;;5060178;28;20078;-67
2023/10/28 09:16:46;;;;;;;19.63;8.40;;;;;;;;;;5064524;28;20484;-66
2023/10/28 09:19:21;;;;;;;18.77;8.07;;;;;;;;;;5061426;28;20035;-67
2023/10/28 09:21:50;;;;;;;18.47;7.93;;;;;;;;;;5060202;28;20615;-67
2023/10/28 09:24:16;;;;;;;14.53;7.30;;;;;;;;;;5055658;28;20020;-66
2023/10/28 09:26:41;;;;;;;17.03;7.20;;;;;;;;;;5061274;28;20281;-67
2023/10/28 09:29:06;;;;;;;17.60;7.43;;;;;;;;;;5058422;28;20029;-67
2023/10/28 09:31:32;;;;;;;15.90;6.53;;;;;;;;;;5058844;28;20468;-67
2023/10/28 09:33:59;;;;;;;17.23;7.80;;;;;;;;;;5059695;28;20027;-67
2023/10/28 09:36:24;;;;;;;13.75;7.03;;;;;;;;;;5055763;28;20032;-66
2023/10/28 09:38:50;;;;;;;14.10;7.13;;;;;;;;;;5060515;28;20165;-66
2023/10/28 09:41:16;;;;;;;14.70;6.82;;;;;;;;;;5058327;28;20610;-66
2023/10/28 09:43:42;;;;;;;16.33;6.80;;;;;;;;;;5061370;28;20039;-66
2023/10/28 09:46:08;;;;;;;14.05;6.60;;;;;;;;;;5059102;28;20381;-66
2023/10/28 09:48:38;;;;;;;12.68;6.97;;;;;;;;;;5060527;28;20015;-66
2023/10/28 09:51:04;;;;;;;12.52;6.68;;;;;;;;;;5061514;28;20047;-67
2023/10/28 09:53:30;;;;;;;14.45;6.90;;;;;;;;;;5062904;28;20034;-66
2023/10/28 09:55:56;;;;;;;13.60;6.68;;;;;;;;;;5063285;28;20225;-66
2023/10/28 09:58:24;;;;;;;15.27;7.60;;;;;;;;;;5062869;28;20426;-67
2023/10/28 10:00:52;;;;;;;12.75;7.10;;;;;;;;;;5058592;28;20147;-67
2023/10/28 10:03:25;;;;;;;12.82;7.13;;;;;;;;;;5062773;28;20132;-66
2023/10/28 10:05:53;;;;;;;11.57;6.57;;;;;;;;;;5060323;28;20680;-67
2023/10/28 10:08:22;;;;;;;11.60;6.60;;;;;;;;;;5061673;28;20021;-67
2023/10/28 10:10:48;;;;;;;12.85;6.47;;;;;;;;;;5063874;28;20016;-66
2023/10/28 10:13:16;;;;;;;14.80;7.10;;;;;;;;;;5064032;28;20330;-65
2023/10/28 10:16:02;;;;;;;15.00;7.13;;;;;;;;;;5061079;28;20069;-67
2023/10/28 10:18:32;;;;;;;12.80;6.60;;;;;;;;;;5063668;28;20554;-66
2023/10/28 10:21:06;;;;;;;11.10;6.10;;;;;;;;;;5064680;28;20018;-67
2023/10/28 10:23:44;;;;;;;10.88;5.57;;;;;;;;;;5055165;28;20085;-67
2023/10/28 10:26:20;;;;;;;12.23;6.00;;;;;;;;;;5061799;28;20055;-67
2023/10/28 10:28:48;;;;;;;8.57;4.63;;;;;;;;;;5061794;28;20477;-66
2023/10/28 10:31:17;;;;;;;9.98;5.07;;;;;;;;;;5063554;28;20442;-67
2023/10/28 10:33:42;;;;;;;11.80;4.93;;;;;;;;;;5060883;28;20020;-67
2023/10/28 10:36:17;;;;;;;8.23;4.30;;;;;;;;;;5058629;28;20029;-67
2023/10/28 10:38:43;;;;;;;7.63;4.13;;;;;;;;;;5062500;28;20111;-66
2023/10/28 10:41:08;;;;;;;10.93;4.60;;;;;;;;;;5059805;28;20099;-67
2023/10/28 10:43:33;;;;;;;7.53;3.92;;;;;;;;;;5059251;28;20024;-66
2023/10/28 10:45:59;;;;;;;7.75;3.50;;;;;;;;;;5059135;28;20020;-66
2023/10/28 10:48:25;;;;;;;6.63;3.00;;;;;;;;;;5065715;28;20154;-67
2023/10/28 10:50:50;;;;;;;9.20;3.40;;;;;;;;;;5065356;28;20043;-66
2023/10/28 10:53:16;;;;;;;7.25;3.10;;;;;;;;;;5065342;28;20067;-66
2023/10/28 10:55:41;;;;;;;9.20;3.40;;;;;;;;;;5065942;28;20074;-67
2023/10/28 10:58:07;;;;;;;7.78;3.30;;;;;;;;;;5064165;28;20046;-68
2023/10/28 11:00:37;;;;;;;7.53;3.50;;;;;;;;;;5061927;28;20270;-69
2023/10/28 11:03:03;;;;;;;7.28;3.00;;;;;;;;;;5060145;28;20051;-69
2023/10/28 11:05:30;;;;;;;7.67;2.70;;;;;;;;;;5062592;28;20029;-68
2023/10/28 11:07:55;;;;;;;5.80;2.38;;;;;;;;;;5059715;28;20086;-69
2023/10/28 11:10:22;;;;;;;5.27;2.40;;;;;;;;;;5063863;28;20021;-69
2023/10/28 11:12:48;;;;;;;11.20;2.73;;;;;;;;;;5056282;28;20021;-68
2023/10/28 11:15:14;;;;;;;6.80;2.63;;;;;;;;;;5062316;28;20009;-68
2023/10/28 11:17:40;;;;;;;5.23;2.60;;;;;;;;;;5064080;28;20029;-68
2023/10/28 11:20:06;;;;;;;6.63;3.07;;;;;;;;;;5065974;28;20538;-69
2023/10/28 11:22:31;;;;;;;7.47;2.80;;;;;;;;;;5066440;28;20512;-68
2023/10/28 11:24:57;;;;;;;7.60;2.60;;;;;;;;;;5065053;28;20033;-68
2023/10/28 11:27:26;;;;;;;5.00;2.40;;;;;;;;;;5066136;28;20032;-68
2023/10/28 11:29:51;;;;;;;8.35;2.88;;;;;;;;;;5060334;28;20027;-67
2023/10/28 11:32:19;;;;;;;6.72;2.33;;;;;;;;;;5061364;28;20029;-68
2023/10/28 11:34:44;;;;;;;7.00;2.60;;;;;;;;;;5062818;28;20074;-68
2023/10/28 11:37:10;;;;;;;4.80;2.20;;;;;;;;;;5062169;28;20028;-67
2023/10/28 11:39:38;;;;;;;8.20;2.53;;;;;;;;;;5063906;28;20056;-67
2023/10/28 11:42:08;;;;;;;6.90;2.63;;;;;;;;;;5065703;28;20024;-68
2023/10/28 11:44:34;;;;;;;5.70;2.40;;;;;;;;;;5061921;28;20517;-68
2023/10/28 11:46:59;;;;;;;6.03;2.17;;;;;;;;;;5064598;28;20078;-69
2023/10/28 11:49:24;;;;;;;6.27;2.53;;;;;;;;;;5063972;28;20020;-70
2023/10/28 11:51:50;;;;;;;6.07;2.43;;;;;;;;;;5065265;28;20103;-68
2023/10/28 11:54:15;;;;;;;9.17;2.30;;;;;;;;;;5064862;28;20017;-69
2023/10/28 11:56:40;;;;;;;6.50;2.27;;;;;;;;;;5064661;28;20032;-69
2023/10/28 11:59:05;;;;;;;5.03;2.10;;;;;;;;;;5060606;28;20032;-69
2023/10/28 12:01:33;;;;;;;8.03;2.50;;;;;;;;;;5063499;28;20074;-68
2023/10/28 12:03:59;;;;;;;6.73;2.53;;;;;;;;;;5064585;28;20065;-69
2023/10/28 12:06:24;;;;;;;5.67;2.40;;;;;;;;;;5064072;28;20020;-70
2023/10/28 12:08:50;;;;;;;4.30;2.17;;;;;;;;;;5065167;28;20099;-70
2023/10/28 12:11:15;;;;;;;6.83;2.40;;;;;;;;;;5065690;28;20032;-70
2023/10/28 12:13:40;;;;;;;5.30;2.60;;;;;;;;;;5060200;28;20021;-70
2023/10/28 12:16:06;;;;;;;6.10;2.30;;;;;;;;;;5056388;28;20032;-69
2023/10/28 12:18:32;;;;;;;4.43;2.20;;;;;;;;;;5063925;28;20024;-70
2023/10/28 12:20:57;;;;;;;5.33;2.57;;;;;;;;;;5063159;28;20028;-69
2023/10/28 12:23:22;;;;;;;6.50;1.77;;;;;;;;;;5065204;28;20028;-68
2023/10/28 12:25:47;;;;;;;5.77;2.53;;;;;;;;;;5064189;28;20028;-69
2023/10/28 12:28:13;;;;;;;4.90;1.90;;;;;;;;;;5065501;28;20108;-68
2023/10/28 12:30:40;;;;;;;3.80;1.63;;;;;;;;;;5060868;28;20100;-69
2023/10/28 12:33:09;;;;;;;4.23;1.87;;;;;;;;;;5060384;28;20024;-68
2023/10/28 12:35:34;;;;;;;5.60;1.93;;;;;;;;;;5062173;28;20032;-70
2023/10/28 12:37:59;;;;;;;3.37;1.60;;;;;;;;;;5063095;28;20024;-69
2023/10/28 12:40:26;;;;;;;3.50;1.73;;;;;;;;;;5064147;28;20031;-68
2023/10/28 12:42:52;;;;;;;4.70;1.93;;;;;;;;;;5063059;28;20031;-69
2023/10/28 12:45:17;;;;;;;3.27;1.60;;;;;;;;;;5063290;28;20028;-68
2023/10/28 12:47:42;;;;;;;3.07;1.60;;;;;;;;;;5060633;28;20028;-69
2023/10/28 12:50:08;;;;;;;4.77;2.10;;;;;;;;;;5061010;28;20104;-69
2023/10/28 12:52:34;;;;;;;3.17;1.70;;;;;;;;;;5061663;28;20304;-69
2023/10/28 12:55:00;;;;;;;3.33;1.70;;;;;;;;;;5064683;28;20103;-69
2023/10/28 12:57:25;;;;;;;4.60;1.50;;;;;;;;;;5063068;28;20024;-68
2023/10/28 12:59:51;;;;;;;5.60;1.60;;;;;;;;;;5060528;28;20031;-70
2023/10/28 13:02:17;;;;;;;3.33;1.48;;;;;;;;;;5062722;28;20699;-69
2023/10/28 13:04:44;;;;;;;4.15;1.60;;;;;;;;;;5063293;28;20047;-69
2023/10/28 13:07:09;;;;;;;6.37;1.90;;;;;;;;;;5061171;28;20032;-70
2023/10/28 13:09:34;;;;;;;3.67;1.73;;;;;;;;;;5063053;28;20025;-69
2023/10/28 13:11:59;;;;;;;3.05;1.60;;;;;;;;;;5063328;28;20028;-68
2023/10/28 13:14:26;;;;;;;3.85;1.85;;;;;;;;;;5062558;28;20032;-69
2023/10/28 13:16:52;;;;;;;3.83;1.67;;;;;;;;;;5060055;28;20029;-68
2023/10/28 13:19:17;;;;;;;5.93;1.93;;;;;;;;;;5061262;28;20396;-69
2023/10/28 13:21:44;;;;;;;3.80;1.80;;;;;;;;;;5064893;28;20029;-70
2023/10/28 13:24:09;;;;;;;3.95;1.63;;;;;;;;;;5063497;28;20196;-68
2023/10/28 13:26:34;;;;;;;2.88;1.50;;;;;;;;;;5057338;28;20013;-69
2023/10/28 13:28:59;;;;;;;3.45;1.73;;;;;;;;;;5064386;28;20029;-70
2023/10/28 13:31:25;;;;;;;3.38;1.75;;;;;;;;;;5058700;28;20032;-69
2023/10/28 13:33:50;;;;;;;2.80;1.50;;;;;;;;;;5060518;28;20016;-69
2023/10/28 13:36:15;;;;;;;3.08;1.42;;;;;;;;;;5058636;28;20082;-69
2023/10/28 13:38:40;;;;;;;4.30;1.63;;;;;;;;;;5061727;28;20044;-68
2023/10/28 13:41:06;;;;;;;3.92;1.65;;;;;;;;;;5061287;28;20031;-67
2023/10/28 13:43:31;;;;;;;4.68;1.80;;;;;;;;;;5062777;28;20027;-68
2023/10/28 13:46:08;;;;;;;3.50;1.80;;;;;;;;;;5060881;28;20469;-68
2023/10/28 13:48:34;;;;;;;4.30;2.15;;;;;;;;;;5060252;28;20032;-69
2023/10/28 13:51:00;;;;;;;4.28;2.05;;;;;;;;;;5061753;28;20020;-69
2023/10/28 13:53:25;;;;;;;4.93;1.80;;;;;;;;;;5063462;28;20021;-69
2023/10/28 13:55:51;;;;;;;4.65;2.00;;;;;;;;;;5060382;28;20434;-69
2023/10/28 13:58:17;;;;;;;4.43;1.92;;;;;;;;;;5063566;28;20388;-69
2023/10/28 14:00:42;;;;;;;4.50;2.30;;;;;;;;;;5060669;28;20082;-68
2023/10/28 14:03:11;;;;;;;4.97;2.38;;;;;;;;;;5058337;28;20045;-69
2023/10/28 14:05:37;;;;;;;4.10;2.20;;;;;;;;;;5056518;28;20025;-68
2023/10/28 14:08:02;;;;;;;3.88;2.10;;;;;;;;;;5058038;28;20372;-69
2023/10/28 14:10:27;;;;;;;4.75;2.17;;;;;;;;;;5060077;28;20052;-68
2023/10/28 14:12:53;;;;;;;4.85;2.30;;;;;;;;;;5059807;28;20017;-69
2023/10/28 14:15:18;;;;;;;4.93;2.42;;;;;;;;;;5061739;28;20422;-69
2023/10/28 14:17:43;;;;;;;4.68;2.40;;;;;;;;;;5063205;28;20025;-68
2023/10/28 14:20:11;;;;;;;5.85;2.88;;;;;;;;;;5061914;28;20029;-68